Time;durP1;ratioP1;P1;durP2;ratioP2;P2;SDS_P1;SDS_P2;PMS_P1;PMS_P2;Temp;Humidity;BMP_temperature;BMP_pressure;BME280_temperature;BME280_humidity;BME280_pressure;Samples;Min_cycle;Max_cycle;Signal;HPM_P1;HPM_P2
2023/07/22 04:44:15;;;;;;;;;;;;;;;;;;;;;
2023/07/22 04:47:51;;;;;;;8.47;3.80;;;;;;;19.32;63.89;100446.31;4790755;29;20215;-64
2023/07/22 04:51:32;;;;;;;9.83;3.23;;;;;;;19.41;63.31;100445.09;4776506;29;20750;-65
2023/07/22 04:58:05;;;;;;;5.90;3.60;;;;;;;19.60;63.03;100454.22;4773938;29;20335;-65
2023/07/22 05:02:04;;;;;;;5.93;3.50;;;;;;;19.62;63.34;100452.13;4758577;29;20228;-65
2023/07/22 05:04:45;;;;;;;5.97;3.60;;;;;;;19.50;63.86;100453.81;4778212;29;20255;-63
2023/07/22 05:13:50;;;;;;;5.23;3.20;;;;;;;19.43;63.97;100464.53;4831208;29;20227;-66
2023/07/22 05:16:49;;;;;;;9.00;3.53;;;;;;;19.47;63.77;100462.25;4827967;29;20227;-66
2023/07/22 05:19:23;;;;;;;10.23;4.00;;;;;;;19.44;63.91;100459.97;4867814;29;20210;-66
2023/07/22 05:22:13;;;;;;;5.03;3.23;;;;;;;19.51;64.29;100460.84;4871292;29;20242;-65
2023/07/22 05:28:29;;;;;;;6.77;3.20;;;;;;;19.64;63.16;100460.84;4850063;29;20290;-66
2023/07/22 05:31:05;;;;;;;4.77;3.17;;;;;;;19.76;63.39;100463.72;4867575;29;20218;-66
2023/07/22 05:33:49;;;;;;;7.03;3.90;;;;;;;19.84;64.30;100458.13;4867858;29;20313;-65
2023/07/22 05:36:23;;;;;;;5.27;3.07;;;;;;;19.88;64.38;100460.19;4867700;29;20214;-66
2023/07/22 05:44:48;;;;;;;6.27;3.43;;;;;;;20.02;61.96;100470.94;4847477;29;20854;-67
2023/07/22 05:53:21;;;;;;;7.73;3.43;;;;;;;20.03;61.42;100475.31;4849348;29;20307;-67
2023/07/22 05:55:53;;;;;;;4.77;3.13;;;;;;;19.98;61.54;100470.53;4849760;29;20265;-67
2023/07/22 06:02:09;;;;;;;5.03;3.40;;;;;;;20.33;59.57;100476.47;4838530;29;20215;-67
2023/07/22 06:04:52;;;;;;;5.27;3.03;;;;;;;20.40;59.83;100474.63;4847579;29;20621;-66
2023/07/22 06:07:24;;;;;;;5.20;3.30;;;;;;;20.36;59.79;100481.47;4849416;29;20211;-67
2023/07/22 06:13:42;;;;;;;8.17;3.57;;;;;;;20.33;59.45;100476.47;4779115;29;20964;-68
2023/07/22 06:16:22;;;;;;;5.80;3.43;;;;;;;20.43;59.40;100482.25;4776259;30;20222;-68
2023/07/22 06:18:57;;;;;;;7.03;3.90;;;;;;;20.55;59.53;100490.53;4840115;29;20239;-68
2023/07/22 06:24:46;;;;;;;5.93;4.00;;;;;;;20.46;60.02;100498.00;4848744;29;20643;-67
2023/07/22 06:27:15;;;;;;;6.03;3.73;;;;;;;20.48;60.41;100489.72;4847552;29;20359;-67
2023/07/22 06:29:52;;;;;;;5.20;3.70;;;;;;;20.46;60.56;100497.19;4847485;29;20309;-67
2023/07/22 06:32:21;;;;;;;11.70;3.60;;;;;;;20.57;60.82;100496.53;4846805;29;20227;-68
2023/07/22 06:34:50;;;;;;;5.97;3.80;;;;;;;20.61;60.99;100501.28;4845393;29;20302;-67
2023/07/22 06:37:35;;;;;;;5.27;3.80;;;;;;;20.74;61.40;100488.78;4845735;29;20222;-66
2023/07/22 06:40:04;;;;;;;7.27;4.17;;;;;;;20.83;61.18;100499.13;4838077;29;20253;-65
2023/07/22 06:42:32;;;;;;;13.07;4.67;;;;;;;20.89;61.01;100497.44;4863368;29;20297;-66
2023/07/22 06:45:03;;;;;;;7.27;4.57;;;;;;;20.92;61.35;100499.72;4865438;29;20270;-68
2023/07/22 06:47:44;;;;;;;7.33;4.37;;;;;;;21.02;61.49;100494.69;4866318;29;20217;-70
2023/07/22 06:50:23;;;;;;;7.97;5.13;;;;;;;21.06;62.31;100493.19;4864684;29;20249;-66
2023/07/22 06:52:53;;;;;;;6.97;4.93;;;;;;;20.95;62.46;100499.25;4864068;29;21133;-66
2023/07/22 06:55:29;;;;;;;8.20;5.03;;;;;;;20.87;63.03;100499.50;4861551;29;20217;-65
2023/07/22 06:58:03;;;;;;;8.20;5.17;;;;;;;20.97;62.85;100497.19;4864680;29;20671;-66
2023/07/22 07:00:49;;;;;;;10.40;5.33;;;;;;;20.87;63.14;100504.91;4867556;29;20214;-66
2023/07/22 07:06:16;;;;;;;6.43;5.10;;;;;;;20.92;64.13;100507.78;4866791;29;20210;-66
2023/07/22 07:09:22;;;;;;;12.47;5.73;;;;;;;21.01;63.98;100506.50;4865933;29;20301;-67
2023/07/22 07:11:59;;;;;;;8.87;4.80;;;;;;;21.03;63.71;100507.09;4858109;29;20244;-67
2023/07/22 07:18:05;;;;;;;12.63;5.63;;;;;;;21.25;63.97;100502.25;4826669;29;20220;-65
2023/07/22 07:20:43;;;;;;;12.77;5.23;;;;;;;21.30;64.68;100500.53;4866251;29;20237;-65
2023/07/22 07:23:54;;;;;;;7.30;5.37;;;;;;;21.40;64.38;100500.06;4866776;29;20640;-66
2023/07/22 07:26:26;;;;;;;7.77;4.63;;;;;;;21.49;63.58;100501.44;4866927;29;20213;-66
2023/07/22 07:29:04;;;;;;;9.30;5.87;;;;;;;21.52;62.99;100497.50;4864432;29;20242;-66
2023/07/22 07:32:04;;;;;;;11.20;6.00;;;;;;;21.26;63.94;100509.28;4849225;29;20227;-66
2023/07/22 07:34:52;;;;;;;13.23;6.00;;;;;;;21.25;64.06;100513.88;4866558;29;20217;-66
2023/07/22 07:37:58;;;;;;;10.03;5.63;;;;;;;21.24;64.87;100512.19;4865138;29;20295;-67
2023/07/22 07:40:31;;;;;;;7.43;5.13;;;;;;;21.32;64.65;100503.03;4865266;29;20616;-66
2023/07/22 07:43:06;;;;;;;9.57;5.50;;;;;;;21.47;63.78;100505.41;4866238;29;20297;-65
2023/07/22 07:45:48;;;;;;;13.53;5.97;;;;;;;21.34;63.95;100507.16;4866350;29;20261;-65
2023/07/22 07:48:26;;;;;;;9.13;5.83;;;;;;;21.46;63.64;100509.16;4866868;29;20213;-64
2023/07/22 07:51:07;;;;;;;9.60;6.57;;;;;;;21.49;63.70;100512.25;4864808;29;20243;-65
2023/07/22 07:53:35;;;;;;;8.13;6.27;;;;;;;21.56;62.33;100509.50;4865855;29;21075;-65
2023/07/22 07:56:08;;;;;;;8.43;4.87;;;;;;;21.61;61.69;100517.78;4868652;29;20950;-67
2023/07/22 07:58:36;;;;;;;9.00;4.00;;;;;;;21.71;59.60;100512.72;4866657;29;21078;-64
2023/07/22 08:01:09;;;;;;;10.03;4.83;;;;;;;21.67;59.51;100511.50;4868586;29;20210;-66
2023/07/22 08:03:47;;;;;;;6.97;4.53;;;;;;;21.66;60.20;100515.22;4866582;29;20671;-66
2023/07/22 08:06:19;;;;;;;8.33;4.70;;;;;;;21.71;60.65;100518.13;4865832;29;20218;-65
2023/07/22 08:08:50;;;;;;;6.47;4.40;;;;;;;21.78;60.16;100513.50;4865808;29;20246;-65
2023/07/22 08:14:09;;;;;;;9.63;4.37;;;;;;;21.94;59.59;100507.53;4860222;29;20571;-65
2023/07/22 08:16:57;;;;;;;7.70;4.67;;;;;;;22.08;58.58;100514.47;4865360;29;20568;-65
2023/07/22 08:19:34;;;;;;;10.13;4.73;;;;;;;22.20;57.84;100513.75;4864855;29;20700;-63
2023/07/22 08:22:07;;;;;;;7.07;4.27;;;;;;;22.36;57.67;100505.06;4863490;29;20297;-63
2023/07/22 08:24:40;;;;;;;6.27;4.00;;;;;;;22.50;58.10;100507.41;4864149;29;20277;-63
2023/07/22 08:30:20;;;;;;;6.43;4.10;;;;;;;23.01;55.14;100508.06;4863429;29;20321;-64
2023/07/22 08:32:50;;;;;;;6.83;3.50;;;;;;;23.13;54.92;100507.03;4861907;29;20289;-64
2023/07/22 08:35:18;;;;;;;6.40;3.95;;;;;;;23.40;52.74;100512.06;4862708;29;20225;-63
2023/07/22 08:37:51;;;;;;;7.05;4.38;;;;;;;23.35;52.83;100506.53;4863315;29;20342;-63
2023/07/22 08:40:22;;;;;;;6.85;4.03;;;;;;;23.40;53.48;100506.66;4863542;29;20324;-64
2023/07/22 08:42:54;;;;;;;10.25;5.55;;;;;;;23.41;53.51;100505.59;4865321;29;20676;-64
2023/07/22 08:45:36;;;;;;;16.35;6.65;;;;;;;23.55;53.74;100494.41;4862834;29;20206;-63
2023/07/22 08:48:18;;;;;;;14.55;7.35;;;;;;;23.76;53.18;100506.53;4862688;29;20214;-64
2023/07/22 08:50:56;;;;;;;9.88;4.80;;;;;;;23.98;51.80;100490.56;4862068;29;20638;-65
2023/07/22 08:53:41;;;;;;;6.03;4.20;;;;;;;24.06;51.08;100498.31;4846779;29;20222;-65
2023/07/22 08:56:13;;;;;;;6.57;4.25;;;;;;;24.02;50.56;100499.84;4863564;29;20209;-63
2023/07/22 08:58:52;;;;;;;5.90;3.58;;;;;;;24.02;50.81;100500.66;4862785;29;20694;-64
2023/07/22 09:01:33;;;;;;;10.00;4.28;;;;;;;24.14;50.57;100497.97;4862706;29;20396;-64
2023/07/22 09:04:14;;;;;;;8.38;3.47;;;;;;;24.34;50.20;100498.47;4866978;29;20232;-64
2023/07/22 09:06:43;;;;;;;7.60;3.80;;;;;;;24.55;49.10;100498.88;4867376;29;20221;-64
2023/07/22 09:09:15;;;;;;;7.95;3.53;;;;;;;24.66;48.61;100493.44;4868356;29;20606;-65
2023/07/22 09:11:53;;;;;;;7.60;3.83;;;;;;;24.82;48.37;100482.88;4865609;29;20226;-63
2023/07/22 09:14:23;;;;;;;6.43;4.35;;;;;;;24.96;48.13;100485.13;4867365;29;20262;-64
2023/07/22 09:17:12;;;;;;;15.70;9.77;;;;;;;25.16;47.46;100473.00;4867072;29;20939;-64
2023/07/22 09:19:48;;;;;;;6.93;3.95;;;;;;;25.27;46.54;100472.13;4866035;29;20215;-64
2023/07/22 09:22:28;;;;;;;6.78;2.67;;;;;;;25.44;46.38;100464.81;4864115;29;20253;-64
2023/07/22 09:25:27;;;;;;;9.27;3.38;;;;;;;25.56;45.76;100471.00;4867053;29;20273;-63
2023/07/22 09:28:14;;;;;;;6.43;3.05;;;;;;;25.70;45.51;100463.34;4860951;29;20268;-64
2023/07/22 09:31:08;;;;;;;5.78;3.30;;;;;;;25.80;44.78;100460.81;4852375;29;20256;-65
2023/07/22 09:33:53;;;;;;;4.78;2.80;;;;;;;25.61;44.16;100460.25;4866144;29;20225;-66
2023/07/22 09:36:34;;;;;;;10.93;3.65;;;;;;;25.25;43.49;100469.63;4868248;29;20852;-63
2023/07/22 09:39:07;;;;;;;6.15;2.42;;;;;;;25.00;44.47;100459.16;4866961;29;20747;-63
2023/07/22 09:42:01;;;;;;;5.63;2.85;;;;;;;24.99;45.00;100456.69;4867053;29;20242;-63
2023/07/22 09:44:33;;;;;;;7.47;4.53;;;;;;;25.12;44.12;100459.09;4864324;29;20206;-63
2023/07/22 09:50:16;;;;;;;5.95;3.13;;;;;;;24.86;44.00;100462.38;4860353;29;20238;-63
2023/07/22 09:52:59;;;;;;;5.75;3.17;;;;;;;24.59;44.73;100452.09;4863624;29;20681;-65
2023/07/22 09:55:30;;;;;;;6.50;2.85;;;;;;;24.49;45.00;100457.31;4862662;29;20294;-64
2023/07/22 09:58:16;;;;;;;4.75;3.08;;;;;;;24.56;44.84;100451.75;4865037;29;20218;-65
2023/07/22 10:01:03;;;;;;;6.10;3.85;;;;;;;24.71;44.12;100450.19;4864390;29;20207;-64
2023/07/22 10:03:49;;;;;;;5.32;2.50;;;;;;;24.86;44.18;100440.69;4832619;29;20587;-64
2023/07/22 10:06:30;;;;;;;5.43;2.72;;;;;;;25.00;44.31;100431.19;4865055;29;20690;-64
2023/07/22 10:09:06;;;;;;;9.05;2.97;;;;;;;24.94;43.82;100432.19;4863708;29;20222;-64
2023/07/22 10:11:36;;;;;;;8.77;5.45;;;;;;;24.78;44.24;100419.38;4865703;29;20327;-63
2023/07/22 10:14:12;;;;;;;9.98;4.70;;;;;;;24.69;44.15;100429.78;4868696;29;20729;-64
2023/07/22 10:19:55;;;;;;;8.55;4.30;;;;;;;24.54;45.16;100426.78;4863337;29;20274;-63
2023/07/22 10:22:25;;;;;;;8.13;3.20;;;;;;;24.54;44.43;100427.56;4867787;29;20601;-63
2023/07/22 10:25:13;;;;;;;7.00;3.05;;;;;;;24.43;44.52;100431.16;4868676;29;20541;-63
2023/07/22 10:27:44;;;;;;;6.55;3.45;;;;;;;24.33;44.84;100426.34;4867449;29;20246;-64
2023/07/22 10:33:32;;;;;;;6.28;4.00;;;;;;;24.30;45.17;100426.81;4864804;29;20587;-64
2023/07/22 10:36:10;;;;;;;6.95;2.75;;;;;;;24.33;44.73;100426.34;4862617;29;20220;-63
2023/07/22 10:38:59;;;;;;;6.82;3.30;;;;;;;24.14;44.77;100421.28;4859582;29;20211;-62
2023/07/22 10:44:49;;;;;;;8.65;6.00;;;;;;;;;;4845716;29;20214;-63
2023/07/22 10:47:37;;;;;;;6.82;3.28;;;;;;;23.97;45.75;100415.78;4849807;29;20212;-62
2023/07/22 10:57:55;;;;;;;8.80;2.55;;;;;;;23.98;44.66;100412.00;4781719;29;20823;-63
2023/07/22 11:00:30;;;;;;;6.57;2.60;;;;;;;23.94;44.37;100408.13;4811875;29;20222;-65
2023/07/22 11:03:37;;;;;;;4.18;2.40;;;;;;;23.89;43.60;100414.25;4812244;29;20229;-63
2023/07/22 11:09:41;;;;;;;4.68;3.00;;;;;;;23.65;44.76;100411.78;4788995;29;20297;-63
2023/07/22 11:12:24;;;;;;;5.07;2.60;;;;;;;23.73;45.07;100408.75;4808140;29;20247;-64
2023/07/22 11:15:26;;;;;;;5.82;2.80;;;;;;;24.02;43.99;100413.16;4768266;29;20236;-63
2023/07/22 11:19:08;;;;;;;5.15;2.63;;;;;;;24.22;41.93;100410.94;4790938;29;20387;-64
2023/07/22 11:21:37;;;;;;;5.40;2.67;;;;;;;24.34;40.77;100397.38;4805661;29;20355;-62
2023/07/22 11:27:33;;;;;;;;;;;;;;;;;;;;;
2023/07/22 11:30:07;;;;;;;6.47;3.03;;;;;;;24.85;39.87;100395.63;4811920;29;20715;-64
2023/07/22 11:32:51;;;;;;;6.47;2.65;;;;;;;24.92;39.57;100385.47;4848101;29;20265;-64
2023/07/22 11:35:43;;;;;;;7.90;3.10;;;;;;;25.01;38.85;100378.59;4853276;29;20220;-65
2023/07/22 11:38:14;;;;;;;5.93;3.00;;;;;;;25.29;38.42;100378.53;4846203;29;20582;-64
2023/07/22 11:40:42;;;;;;;4.70;2.75;;;;;;;25.74;38.78;100373.00;4857118;29;20720;-64
2023/07/22 11:43:12;;;;;;;4.95;2.65;;;;;;;26.04;37.20;100367.16;4865173;29;20274;-63
2023/07/22 11:46:00;;;;;;;5.85;2.70;;;;;;;26.28;36.25;100362.34;4862782;29;20236;-64
2023/07/22 11:48:32;;;;;;;5.88;2.65;;;;;;;26.49;36.58;100366.91;4865160;29;20218;-64
2023/07/22 11:51:37;;;;;;;7.57;3.40;;;;;;;26.72;36.94;100351.38;4862792;29;20901;-63
2023/07/22 11:54:12;;;;;;;4.80;2.83;;;;;;;26.57;36.72;100365.63;4860605;29;20219;-65
2023/07/22 11:56:41;;;;;;;9.18;2.83;;;;;;;26.37;36.51;100360.81;4865015;29;20218;-65
2023/07/22 11:59:38;;;;;;;6.95;3.22;;;;;;;26.17;36.33;100355.91;4865623;29;20217;-65
2023/07/22 12:02:08;;;;;;;6.45;3.17;;;;;;;26.01;36.35;100354.09;4862598;29;20229;-63
2023/07/22 12:08:46;;;;;;;7.10;3.08;;;;;;;25.99;36.18;100347.25;4862217;29;20353;-62
2023/07/22 12:11:23;;;;;;;6.15;3.35;;;;;;;26.19;35.84;100348.34;4857663;29;20872;-64
2023/07/22 12:17:16;;;;;;;7.13;3.05;;;;;;;26.39;35.65;100331.47;4825371;29;20222;-62
2023/07/22 12:26:06;;;;;;;4.30;2.58;;;;;;;26.23;34.82;100332.34;4862713;29;20227;-66
2023/07/22 12:28:38;;;;;;;5.55;2.55;;;;;;;26.32;34.74;100327.28;4862960;29;20218;-63
2023/07/22 12:31:13;;;;;;;5.47;2.15;;;;;;;26.18;34.50;100324.97;4861398;29;20265;-65
2023/07/22 12:33:53;;;;;;;5.38;2.30;;;;;;;26.22;34.87;100317.09;4863792;29;20214;-64
2023/07/22 12:36:27;;;;;;;7.28;2.92;;;;;;;26.23;34.93;100316.03;4867009;29;20676;-65
2023/07/22 12:39:09;;;;;;;6.00;2.95;;;;;;;26.32;34.06;100322.69;4863329;29;20254;-65
2023/07/22 12:41:44;;;;;;;6.00;2.47;;;;;;;26.39;34.26;100317.03;4866870;29;20718;-67
2023/07/22 12:44:18;;;;;;;6.20;2.40;;;;;;;26.28;34.75;100316.13;4870528;29;20767;-64
2023/07/22 12:51:00;;;;;;;4.88;2.25;;;;;;;26.12;34.54;100311.56;4867382;29;20246;-66
2023/07/22 12:53:35;;;;;;;4.35;2.40;;;;;;;25.93;34.23;100310.25;4845664;29;20234;-65
2023/07/22 12:56:16;;;;;;;4.60;2.35;;;;;;;25.92;34.62;100311.31;4867417;29;20223;-64
2023/07/22 12:59:10;;;;;;;5.03;2.78;;;;;;;25.77;34.88;100315.47;4868505;29;20266;-64
2023/07/22 13:02:17;;;;;;;6.35;2.38;;;;;;;25.77;35.15;100317.38;4866352;29;20627;-65
2023/07/22 13:04:50;;;;;;;5.40;3.10;;;;;;;25.84;35.30;100310.69;4835080;29;20235;-63
2023/07/22 13:07:29;;;;;;;6.97;3.35;;;;;;;25.87;35.54;100309.34;4867071;29;20585;-64
2023/07/22 13:10:17;;;;;;;9.32;3.83;;;;;;;25.86;35.65;100289.50;4869272;29;20217;-65
2023/07/22 13:12:57;;;;;;;9.27;4.50;;;;;;;25.99;35.22;100290.22;4865433;29;20260;-66
2023/07/22 13:15:26;;;;;;;7.45;4.13;;;;;;;26.05;35.18;100302.78;4867604;29;20210;-65
2023/07/22 13:17:55;;;;;;;6.95;3.13;;;;;;;26.16;34.97;100301.81;4804583;29;197786;-65
2023/07/22 13:24:10;;;;;;;5.50;3.50;;;;;;;26.20;34.90;100294.81;5063535;27;20613;-65
2023/07/22 13:26:44;;;;;;;5.80;2.92;;;;;;;26.23;34.88;100297.81;5061947;28;20246;-64
2023/07/22 13:29:13;;;;;;;11.02;2.88;;;;;;;26.31;34.97;100304.72;5018735;28;20231;-62
2023/07/22 13:31:42;;;;;;;9.63;3.42;;;;;;;26.38;34.75;100308.09;5057192;28;20237;-62
2023/07/22 13:34:15;;;;;;;7.22;2.63;;;;;;;26.41;34.44;100299.41;5060548;28;20306;-64
2023/07/22 13:36:48;;;;;;;7.97;2.97;;;;;;;26.46;34.53;100293.22;5063682;28;20211;-63
2023/07/22 13:39:22;;;;;;;5.22;2.75;;;;;;;26.57;34.81;100289.50;5064418;28;20239;-65
2023/07/22 13:41:51;;;;;;;6.38;3.33;;;;;;;26.55;35.02;100297.94;5065322;28;20215;-65
2023/07/22 13:44:22;;;;;;;5.20;2.83;;;;;;;26.48;34.85;100280.97;5065029;28;20305;-64
2023/07/22 13:46:53;;;;;;;7.13;3.20;;;;;;;26.55;34.06;100292.50;5067334;28;20218;-62
2023/07/22 13:49:25;;;;;;;8.13;2.95;;;;;;;26.73;34.15;100294.03;5065954;28;20699;-65
2023/07/22 13:52:03;;;;;;;5.60;3.03;;;;;;;26.77;33.92;100283.44;5063914;28;20652;-64
2023/07/22 13:54:39;;;;;;;4.63;2.92;;;;;;;26.68;34.12;100282.25;5066976;28;20222;-63
2023/07/22 13:57:10;;;;;;;6.00;2.92;;;;;;;26.74;34.35;100290.19;5066230;28;20214;-64
2023/07/22 13:59:39;;;;;;;6.88;3.03;;;;;;;26.76;34.31;100288.03;5069594;28;20270;-65
2023/07/22 14:02:12;;;;;;;7.25;3.15;;;;;;;26.69;34.80;100283.91;5069596;28;20993;-64
2023/07/22 14:04:44;;;;;;;6.13;3.33;;;;;;;26.67;34.76;100277.91;5067057;28;20842;-64
2023/07/22 14:07:17;;;;;;;6.95;3.28;;;;;;;26.64;34.16;100273.00;5068725;28;20661;-64
2023/07/22 14:09:47;;;;;;;5.43;3.17;;;;;;;26.57;34.19;100274.00;5067398;28;20242;-64
2023/07/22 14:12:15;;;;;;;6.43;3.05;;;;;;;26.51;34.04;100274.22;5065491;28;20883;-65
2023/07/22 14:14:50;;;;;;;6.03;3.03;;;;;;;26.45;33.61;100276.09;5065775;28;20819;-64
2023/07/22 14:17:19;;;;;;;7.25;3.38;;;;;;;26.44;33.50;100269.00;5065200;28;20657;-65
2023/07/22 14:19:52;;;;;;;7.93;3.40;;;;;;;26.44;33.48;100269.00;5069898;28;20230;-64
2023/07/22 14:22:24;;;;;;;11.68;3.00;;;;;;;26.46;33.62;100271.47;5043863;28;20244;-64
2023/07/22 14:24:54;;;;;;;6.38;3.10;;;;;;;26.49;33.47;100268.22;5033037;28;20316;-63
2023/07/22 14:27:22;;;;;;;4.95;3.00;;;;;;;26.38;33.39;100270.03;5038814;28;20223;-63
2023/07/22 14:29:54;;;;;;;7.57;3.83;;;;;;;26.31;33.45;100274.00;5032944;28;20204;-65
2023/07/22 14:32:25;;;;;;;6.32;3.50;;;;;;;26.27;33.63;100262.03;5033468;28;20208;-64
2023/07/22 14:34:54;;;;;;;5.90;3.30;;;;;;;26.23;33.67;100256.25;5022800;28;20240;-65
2023/07/22 14:37:28;;;;;;;5.75;2.75;;;;;;;26.15;33.81;100264.84;5019760;28;20259;-64
2023/07/22 14:40:09;;;;;;;4.82;3.38;;;;;;;26.11;33.47;100263.72;5022208;28;20205;-65
2023/07/22 14:42:38;;;;;;;7.03;3.38;;;;;;;26.06;33.32;100260.94;5021228;28;20661;-63
2023/07/22 14:45:10;;;;;;;10.38;3.65;;;;;;;26.14;33.20;100252.34;5024747;28;20215;-65
2023/07/22 14:47:39;;;;;;;5.90;3.20;;;;;;;26.16;33.45;100247.47;5019350;28;20606;-65
2023/07/22 14:50:07;;;;;;;5.57;3.20;;;;;;;26.20;33.34;100251.34;5020535;28;20282;-65
2023/07/22 14:52:36;;;;;;;7.57;3.20;;;;;;;26.13;33.02;100245.25;5021339;28;20288;-64
2023/07/22 14:55:07;;;;;;;6.60;4.22;;;;;;;26.12;33.33;100249.06;5020901;28;20244;-64
2023/07/22 14:57:36;;;;;;;5.28;3.70;;;;;;;26.24;33.39;100247.00;5022702;28;20321;-65
2023/07/22 15:00:05;;;;;;;6.70;3.75;;;;;;;26.27;33.54;100243.81;5022710;28;20210;-65
2023/07/22 15:02:37;;;;;;;10.63;4.35;;;;;;;26.26;33.39;100244.91;5019254;28;20206;-64
2023/07/22 15:05:14;;;;;;;6.43;3.35;;;;;;;26.28;33.18;100242.75;5021828;28;20252;-66
2023/07/22 15:07:42;;;;;;;12.70;3.92;;;;;;;26.28;33.41;100242.75;5020505;28;20212;-64
2023/07/22 15:10:16;;;;;;;6.82;3.63;;;;;;;26.30;33.28;100240.56;5018411;28;20304;-64
2023/07/22 15:12:45;;;;;;;6.65;3.33;;;;;;;26.19;33.17;100239.66;5020090;28;20201;-62
2023/07/22 15:15:14;;;;;;;12.07;5.07;;;;;;;26.11;33.24;100242.00;5020347;28;20704;-64
2023/07/22 15:17:44;;;;;;;7.97;3.55;;;;;;;26.11;33.25;100236.56;5022697;28;20208;-64
2023/07/22 15:20:16;;;;;;;6.65;3.47;;;;;;;26.08;33.07;100237.06;5021257;28;20216;-64
2023/07/22 15:22:44;;;;;;;4.97;3.65;;;;;;;26.09;33.43;100255.00;5002935;28;20241;-63
2023/07/22 15:25:17;;;;;;;7.45;3.50;;;;;;;26.07;33.08;100246.28;4985477;28;20210;-65
2023/07/22 15:27:46;;;;;;;15.07;4.03;;;;;;;26.08;32.73;100250.66;4986014;28;20625;-65
2023/07/22 15:30:21;;;;;;;10.45;3.70;;;;;;;26.08;32.48;100242.50;4980372;28;20249;-63
2023/07/22 15:32:50;;;;;;;5.97;3.67;;;;;;;26.08;32.60;100250.66;4984144;28;20606;-67
2023/07/22 15:35:21;;;;;;;6.63;3.38;;;;;;;26.05;32.82;100245.72;4985833;28;20221;-64
2023/07/22 15:37:55;;;;;;;8.85;3.90;;;;;;;26.04;32.99;100239.47;4981211;28;20221;-63
2023/07/22 15:40:25;;;;;;;7.30;3.28;;;;;;;26.04;32.96;100241.34;4980096;28;20297;-63
2023/07/22 15:42:54;;;;;;;5.72;3.38;;;;;;;26.05;32.91;100237.56;4980245;28;20565;-64
2023/07/22 15:45:26;;;;;;;9.85;3.28;;;;;;;26.02;32.84;100238.09;4982361;28;20242;-64
2023/07/22 15:47:54;;;;;;;6.78;4.20;;;;;;;26.06;32.79;100233.78;4980170;28;20301;-64
2023/07/22 15:50:30;;;;;;;5.05;2.80;;;;;;;26.08;32.97;100227.00;4982762;28;20274;-64
2023/07/22 15:53:02;;;;;;;9.45;4.03;;;;;;;26.04;33.06;100222.34;4985746;28;20214;-63
2023/07/22 15:55:38;;;;;;;10.10;4.03;;;;;;;26.00;32.59;100223.94;4979937;28;20225;-63
2023/07/22 15:58:11;;;;;;;10.48;4.13;;;;;;;25.99;32.73;100222.28;4982005;28;20214;-64
2023/07/22 16:00:40;;;;;;;10.75;3.65;;;;;;;25.98;32.72;100220.66;4982038;28;21509;-63
2023/07/22 16:03:10;;;;;;;7.43;3.58;;;;;;;25.91;32.97;100222.75;4983564;28;20272;-64
2023/07/22 16:05:45;;;;;;;7.95;3.70;;;;;;;25.92;33.16;100224.38;4983130;28;20217;-65
2023/07/22 16:08:14;;;;;;;7.50;3.58;;;;;;;25.94;33.30;100219.53;4981781;28;20295;-64
2023/07/22 16:10:52;;;;;;;7.95;4.22;;;;;;;26.08;33.16;100209.88;4982490;28;20233;-63
2023/07/22 16:13:42;;;;;;;6.22;3.92;;;;;;;26.05;33.08;100202.25;4982362;28;20870;-63
2023/07/22 16:16:11;;;;;;;10.65;5.45;;;;;;;26.09;32.80;100201.50;4976757;28;20219;-63
2023/07/22 16:18:47;;;;;;;8.95;4.50;;;;;;;26.11;32.97;100198.53;4976654;28;20302;-64
2023/07/22 16:21:15;;;;;;;10.45;3.80;;;;;;;26.09;35.62;100197.94;4978486;28;20257;-66
2023/07/22 16:23:51;;;;;;;7.82;3.55;;;;;;;26.06;34.65;100204.72;4995619;28;20325;-64
2023/07/22 16:26:28;;;;;;;6.65;3.58;;;;;;;26.10;34.70;100207.75;4999453;28;20410;-67
2023/07/22 16:29:03;;;;;;;12.23;3.22;;;;;;;26.04;32.92;100197.88;4996715;28;20863;-65
2023/07/22 16:31:46;;;;;;;6.35;3.58;;;;;;;26.04;32.96;100198.69;4998890;28;20272;-63
2023/07/22 16:34:18;;;;;;;9.73;3.45;;;;;;;25.99;33.93;100203.28;4998408;28;20201;-64
2023/07/22 16:36:47;;;;;;;7.78;3.83;;;;;;;25.97;33.48;100208.13;4995663;28;20252;-64
2023/07/22 16:39:16;;;;;;;9.45;3.95;;;;;;;25.97;33.69;100197.28;4996782;28;20217;-64
2023/07/22 16:41:45;;;;;;;8.60;3.85;;;;;;;25.98;33.69;100204.34;4995090;28;20224;-64
2023/07/22 16:44:17;;;;;;;10.70;4.10;;;;;;;25.99;33.17;100204.09;4997014;28;20226;-64
2023/07/22 16:46:45;;;;;;;10.27;3.80;;;;;;;25.99;33.06;100200.56;5003504;28;20208;-64
2023/07/22 16:49:15;;;;;;;6.20;3.22;;;;;;;25.99;33.25;100193.22;4999602;28;20305;-64
2023/07/22 16:51:45;;;;;;;5.55;3.05;;;;;;;26.03;33.02;100194.38;5001195;28;20253;-63
2023/07/22 16:54:16;;;;;;;6.93;4.10;;;;;;;26.03;33.01;100197.09;4999893;28;20297;-63
2023/07/22 16:56:49;;;;;;;7.25;3.58;;;;;;;26.04;33.03;100192.44;4998421;28;20233;-63
2023/07/22 16:59:21;;;;;;;9.27;3.75;;;;;;;26.03;33.08;100194.38;4999604;28;20224;-64
2023/07/22 17:01:48;;;;;;;9.43;3.55;;;;;;;26.07;33.23;100189.22;5000484;28;20299;-65
2023/07/22 17:04:17;;;;;;;8.73;3.50;;;;;;;26.07;33.08;100191.94;5000551;28;20781;-64
2023/07/22 17:06:45;;;;;;;7.03;4.18;;;;;;;26.05;33.17;100189.47;5000162;28;20300;-64
2023/07/22 17:09:13;;;;;;;9.70;4.28;;;;;;;26.05;33.25;100183.22;4998392;28;20317;-64
2023/07/22 17:11:49;;;;;;;5.70;3.72;;;;;;;26.05;33.13;100185.94;5002992;28;20220;-65
2023/07/22 17:14:17;;;;;;;18.50;4.65;;;;;;;26.03;32.72;100185.41;5000964;28;20206;-64
2023/07/22 17:16:46;;;;;;;15.20;3.72;;;;;;;25.94;32.30;100186.94;4998071;28;20205;-65
2023/07/22 17:19:15;;;;;;;11.60;3.75;;;;;;;25.93;32.59;100182.56;4996473;28;20290;-65
2023/07/22 17:21:47;;;;;;;10.70;3.30;;;;;;;25.91;32.33;100190.97;4997708;28;20233;-64
2023/07/22 17:24:15;;;;;;;7.70;3.78;;;;;;;25.91;32.56;100187.44;4998541;28;20245;-64
2023/07/22 17:26:43;;;;;;;8.82;3.55;;;;;;;25.89;32.41;100184.97;4999564;28;20213;-62
2023/07/22 17:29:16;;;;;;;7.60;3.10;;;;;;;25.85;32.27;100179.25;4997970;28;20723;-65
2023/07/22 17:31:44;;;;;;;7.40;3.05;;;;;;;25.83;32.23;100180.56;4998391;28;20214;-64
2023/07/22 17:34:15;;;;;;;6.20;3.00;;;;;;;25.83;32.49;100178.69;4999282;28;20663;-65
2023/07/22 17:36:43;;;;;;;5.43;3.03;;;;;;;25.80;32.72;100184.59;5000371;28;20213;-64
2023/07/22 17:39:15;;;;;;;11.80;5.22;;;;;;;25.79;32.65;100185.69;5000208;28;20744;-64
2023/07/22 17:41:44;;;;;;;15.23;6.90;;;;;;;25.82;32.75;100179.75;4997948;28;20217;-63
2023/07/22 17:44:13;;;;;;;13.68;4.63;;;;;;;25.81;32.70;100183.53;4996409;28;20304;-64
2023/07/22 17:46:50;;;;;;;6.95;2.50;;;;;;;25.74;32.84;100180.19;4999500;28;20304;-65
2023/07/22 17:49:18;;;;;;;6.03;2.95;;;;;;;25.69;32.86;100169.25;4997968;28;20327;-64
2023/07/22 17:51:46;;;;;;;6.25;3.28;;;;;;;25.68;33.01;100173.06;4997609;28;20206;-62
2023/07/22 17:54:15;;;;;;;7.25;2.67;;;;;;;25.66;32.97;100163.53;4997182;28;20220;-64
2023/07/22 17:56:46;;;;;;;5.80;2.63;;;;;;;25.62;33.10;100174.06;4999102;28;20217;-63
2023/07/22 17:59:18;;;;;;;7.82;2.80;;;;;;;25.57;33.21;100181.31;4996200;28;20213;-63
2023/07/22 18:01:48;;;;;;;9.38;3.10;;;;;;;25.55;33.25;100173.44;4997717;28;20207;-62
2023/07/22 18:04:16;;;;;;;6.00;2.67;;;;;;;25.54;33.34;100169.06;4996870;28;20225;-65
2023/07/22 18:06:48;;;;;;;5.78;3.13;;;;;;;25.52;33.67;100167.66;4998411;28;20205;-64
2023/07/22 18:09:16;;;;;;;6.90;3.22;;;;;;;25.47;33.69;100165.72;5001302;28;20209;-64
2023/07/22 18:11:45;;;;;;;4.07;2.75;;;;;;;25.44;33.61;100160.78;5003168;28;20232;-64
2023/07/22 18:14:17;;;;;;;5.55;2.53;;;;;;;25.44;33.56;100163.50;5001554;28;20210;-64
2023/07/22 18:16:45;;;;;;;7.95;4.40;;;;;;;25.44;33.51;100160.78;5004238;28;20218;-64
2023/07/22 18:19:14;;;;;;;5.70;3.00;;;;;;;25.44;33.57;100161.63;5000201;28;20879;-61
2023/07/22 18:21:42;;;;;;;6.10;3.30;;;;;;;25.41;33.68;100162.16;5001028;28;20239;-67
2023/07/22 18:24:11;;;;;;;7.47;3.58;;;;;;;25.38;33.50;100164.53;5001237;28;20305;-69
2023/07/22 18:26:39;;;;;;;5.38;3.10;;;;;;;25.33;33.86;100161.75;5001618;28;20237;-65
2023/07/22 18:32:06;;;;;;;6.65;3.80;;;;;;;25.29;33.96;100174.19;5134564;27;21102;-66